Airfield :
LOGIN :

Register | Disclaimer

   EN    FR    IT 

 










Legend :    VFR   Marginal VFR   IFR   Intensive IFR   Very Intensive IFR
Visi :
Ceiling :
>= 8 km
>= 3000ft
5 to 8 km
1000 to 3000 ft
1500m to 5 km
500 to 1000 ft
800 to 1500m
200 to 500 ft
< 800m
< 200 ft
Symbols :   Thunderstorms  Fog  Heavy snow  Heavy precipitations  Wind > 20 kt
SIGMETs :     Misc.  Thunderstorms  Icing  Turbulence  Mountain Waves  Volcanic Ashes






- Airport Elevation : 14 ft
- IATA code : BRE


EDDW - Bremen Neuenland

CURRENT METAR :
  • 071950Z 24011KT 9999 FEW009 BKN015 08/07 Q1010 TEMPO BKN011

EXPIRED METARs :
  • 071920Z 24013KT 9999 FEW009 BKN015 09/07 Q1010 TEMPO BKN011
  • 071850Z 24011KT 9999 FEW009 BKN015 08/07 Q1010 TEMPO BKN011
  • 071820Z 24012KT 9999 FEW011 SCT020 BKN048 08/07 Q1010 TEMPO BKN013
  • 071750Z 25012KT 9999 SCT013 SCT032 09/07 Q1010 TEMPO BKN013
  • 071720Z 25008KT 9999 BKN013 09/07 Q1010 TEMPO BKN015

TAF TAF EDDW
Valid from the 07 at 18:00 until the 08 at 18:00 UTC


071700Z 0718/0818 23011KT 9999 BKN020
TEMPO 0718/0815 BKN012
BECMG 0803/0805 23015G25KT
TEMPO 0807/0813 24020G35KT
PROB30
TEMPO 0808/0815 4500 RA
BECMG 0815/0817 24011KT
TEMPO 0817/0818 25015G25KT



MET'MAP, your aeronautical weather chart ! - Copyright ORBIFLY December 2007 - Disclaimer

ORBIFLY MET'MAP TEAM :

Programming & Development : Alexandra Zaïnal
Concept & original design : Baudouin d'Aumeries
Assistance for programming : Marc-Olivier Méhu
Technical & hardware support : Manuel Goepfert

Contact : metmap@orbifly.com




SOURCES & CREDITS :

   NOAA